createdAt,value
2023-07-22T00:00:00.947Z,56.81
2023-07-22T00:02:29.015Z,57.34
2023-07-22T00:04:57.143Z,57.49
2023-07-22T00:07:25.159Z,57.88
2023-07-22T00:09:53.183Z,58.94
2023-07-22T00:12:21.200Z,59.95
2023-07-22T00:14:49.186Z,60.39
2023-07-22T00:17:18.751Z,61.34
2023-07-22T00:19:46.837Z,62.00
2023-07-22T00:22:14.822Z,62.67
2023-07-22T00:24:42.871Z,62.94
2023-07-22T00:27:11.569Z,63.19
2023-07-22T00:29:39.593Z,63.75
2023-07-22T00:32:09.924Z,64.63
2023-07-22T00:34:39.329Z,64.81
2023-07-22T00:37:07.426Z,65.38
2023-07-22T00:39:35.359Z,66.03
2023-07-22T00:42:03.312Z,66.47
2023-07-22T00:44:31.677Z,66.84
2023-07-22T00:47:00.437Z,66.63
2023-07-22T00:49:29.964Z,67.21
2023-07-22T00:52:02.855Z,67.42
2023-07-22T00:54:32.073Z,67.88
2023-07-22T00:57:00.405Z,68.13
2023-07-22T00:59:29.191Z,68.25
2023-07-22T01:01:57.258Z,68.26
2023-07-22T01:04:26.433Z,68.92
2023-07-22T01:06:55.324Z,69.48
2023-07-22T01:09:24.693Z,70.30
2023-07-22T01:11:52.666Z,69.91
2023-07-22T01:14:20.640Z,70.27
2023-07-22T01:16:48.837Z,70.62
2023-07-22T01:19:20.006Z,71.62
2023-07-22T01:21:50.361Z,72.02
2023-07-22T01:24:20.104Z,72.06
2023-07-22T01:26:49.017Z,72.52
2023-07-22T01:29:17.059Z,72.56
2023-07-22T01:31:49.317Z,72.90
2023-07-22T01:34:18.168Z,73.72
2023-07-22T01:36:48.608Z,73.61
2023-07-22T01:39:16.944Z,73.76
2023-07-22T01:41:46.676Z,73.88
2023-07-22T01:44:14.704Z,73.95
2023-07-22T01:46:43.274Z,74.49
2023-07-22T01:49:13.792Z,74.29
2023-07-22T01:51:42.561Z,74.56
2023-07-22T01:54:11.463Z,74.19
2023-07-22T01:56:39.937Z,74.11
2023-07-22T01:59:11.323Z,75.24
2023-07-22T02:01:39.833Z,75.30
2023-07-22T02:04:08.102Z,76.13
2023-07-22T02:06:36.572Z,76.74
2023-07-22T02:09:09.730Z,76.93
2023-07-22T02:11:38.050Z,76.77
2023-07-22T02:14:08.340Z,77.04
2023-07-22T02:16:38.974Z,77.06
2023-07-22T02:19:07.669Z,77.24
2023-07-22T02:21:35.776Z,77.36
2023-07-22T02:24:03.817Z,76.76
2023-07-22T02:26:31.921Z,76.48
2023-07-22T02:28:59.930Z,76.94
2023-07-22T02:31:28.059Z,77.75
2023-07-22T02:33:57.493Z,77.56
2023-07-22T02:36:25.775Z,77.97
2023-07-22T02:38:54.150Z,78.10
2023-07-22T02:41:22.975Z,78.38
2023-07-22T02:43:51.165Z,78.97
2023-07-22T02:46:19.306Z,79.50
2023-07-22T02:48:47.475Z,79.54
2023-07-22T02:51:16.881Z,80.10
2023-07-22T02:53:45.815Z,80.00
2023-07-22T02:56:14.239Z,81.01
2023-07-22T02:58:43.103Z,81.07
2023-07-22T03:01:11.592Z,81.30
2023-07-22T03:03:41.170Z,82.14
2023-07-22T03:06:10.928Z,82.36
2023-07-22T03:08:40.414Z,82.27
2023-07-22T03:11:08.561Z,81.95
2023-07-22T03:13:36.637Z,82.90
2023-07-22T03:16:05.933Z,82.60
2023-07-22T03:18:34.147Z,82.68
2023-07-22T03:21:02.235Z,82.65
2023-07-22T03:23:30.345Z,82.31
2023-07-22T03:25:59.718Z,82.82
2023-07-22T03:28:28.084Z,82.88
2023-07-22T03:30:56.152Z,82.70
2023-07-22T03:33:24.208Z,82.60
2023-07-22T03:35:52.285Z,82.30
2023-07-22T03:38:20.332Z,82.52
2023-07-22T03:40:48.699Z,82.55
2023-07-22T03:43:18.436Z,82.69
2023-07-22T03:45:46.573Z,81.83
2023-07-22T03:48:14.764Z,81.67
2023-07-22T03:50:42.830Z,81.11
2023-07-22T03:53:10.862Z,80.30
2023-07-22T03:55:38.882Z,80.89
2023-07-22T03:58:06.832Z,79.97
2023-07-22T04:00:36.281Z,79.50
2023-07-22T04:03:04.653Z,79.02
2023-07-22T04:05:32.791Z,78.93
2023-07-22T04:08:00.783Z,78.53
2023-07-22T04:10:28.728Z,78.03
2023-07-22T04:12:56.801Z,77.50
2023-07-22T04:15:24.924Z,77.35
2023-07-22T04:17:55.155Z,77.38
2023-07-22T04:20:25.495Z,77.50
2023-07-22T04:22:53.492Z,77.13
2023-07-22T04:25:21.624Z,77.20
2023-07-22T04:27:49.809Z,75.90
2023-07-22T04:30:21.801Z,78.18
2023-07-22T04:32:50.487Z,78.97
2023-07-22T04:35:20.175Z,79.12
2023-07-22T04:37:48.627Z,79.18
2023-07-22T04:40:19.458Z,78.73
2023-07-22T04:42:47.708Z,78.54
2023-07-22T04:45:15.797Z,78.53
2023-07-22T04:47:45.690Z,78.17
2023-07-22T04:50:14.012Z,78.18
2023-07-22T04:52:44.795Z,77.16
2023-07-22T04:55:13.310Z,76.48
2023-07-22T04:57:42.437Z,76.19
2023-07-22T05:00:13.253Z,75.71
2023-07-22T05:02:41.467Z,75.17
2023-07-22T05:05:10.721Z,74.03
2023-07-22T05:07:38.785Z,73.14
2023-07-22T05:10:13.338Z,71.41
2023-07-22T05:12:41.783Z,70.87
2023-07-22T05:15:12.202Z,70.35
2023-07-22T05:17:40.594Z,69.54
2023-07-22T05:20:11.279Z,68.27
2023-07-22T05:22:39.650Z,68.25
2023-07-22T05:25:10.848Z,66.36
2023-07-22T05:27:39.325Z,64.84
2023-07-22T05:30:16.084Z,65.22
2023-07-22T05:32:48.418Z,64.23
2023-07-22T05:35:16.495Z,62.55
2023-07-22T05:37:44.433Z,61.23
2023-07-22T05:40:14.101Z,58.52
2023-07-22T05:42:42.385Z,57.77
2023-07-22T05:45:14.876Z,55.56
2023-07-22T05:47:43.079Z,55.58
2023-07-22T05:50:11.783Z,55.82
2023-07-22T05:52:40.325Z,56.98
2023-07-22T05:55:08.814Z,56.66
2023-07-22T05:57:38.612Z,56.29
2023-07-22T06:00:09.981Z,55.51
2023-07-22T06:02:38.649Z,54.96
2023-07-22T06:05:07.254Z,55.09
2023-07-22T06:07:35.439Z,55.62
2023-07-22T06:10:03.952Z,54.66
2023-07-22T06:12:32.270Z,53.67
2023-07-22T06:15:02.162Z,52.99
2023-07-22T06:17:30.249Z,52.58
2023-07-22T06:19:58.617Z,52.89
2023-07-22T06:22:26.692Z,52.64
2023-07-22T06:24:54.869Z,51.37
2023-07-22T06:27:23.251Z,51.25
2023-07-22T06:29:51.279Z,51.33
2023-07-22T06:32:20.858Z,51.33
2023-07-22T06:34:48.880Z,50.24
2023-07-22T06:37:16.893Z,51.65
2023-07-22T06:39:44.921Z,50.97
2023-07-22T06:42:12.853Z,51.20
2023-07-22T06:44:41.204Z,51.54
2023-07-22T06:47:09.431Z,50.15
2023-07-22T06:49:38.978Z,49.92
2023-07-22T06:52:08.537Z,48.57
2023-07-22T06:54:37.287Z,47.31
2023-07-22T06:57:07.391Z,48.57
2023-07-22T06:59:35.486Z,48.35
2023-07-22T07:02:03.533Z,47.88
2023-07-22T07:04:31.618Z,47.36
2023-07-22T07:07:01.444Z,47.19
2023-07-22T07:09:47.868Z,46.38
2023-07-22T07:12:15.962Z,45.20
2023-07-22T07:14:44.451Z,44.63
2023-07-22T07:17:12.610Z,45.03
2023-07-22T07:19:40.648Z,45.12
2023-07-22T07:22:10.338Z,45.01
2023-07-22T07:24:38.532Z,45.22
2023-07-22T07:27:07.340Z,45.24
2023-07-22T07:29:51.942Z,45.18
2023-07-22T07:32:21.680Z,45.95
2023-07-22T07:34:49.858Z,43.65
2023-07-22T07:37:19.438Z,43.72
2023-07-22T07:39:47.578Z,43.08
2023-07-22T07:42:15.616Z,43.20
2023-07-22T07:44:44.790Z,43.13
2023-07-22T07:47:12.885Z,43.67
2023-07-22T07:49:41.750Z,43.06
2023-07-22T07:52:09.894Z,42.31
2023-07-22T07:54:39.409Z,43.18
2023-07-22T07:57:08.538Z,41.61
2023-07-22T07:59:39.390Z,42.18
2023-07-22T08:02:10.851Z,42.34
2023-07-22T08:04:38.915Z,40.80
2023-07-22T08:07:09.025Z,40.65
2023-07-22T08:09:37.431Z,40.49
2023-07-22T08:12:07.572Z,40.81
2023-07-22T08:14:35.841Z,40.28
2023-07-22T08:17:05.129Z,39.12
2023-07-22T08:19:33.267Z,39.29
2023-07-22T08:22:01.722Z,39.98
2023-07-22T08:24:29.857Z,39.90
2023-07-22T08:26:57.952Z,39.39
2023-07-22T08:29:27.815Z,39.86
2023-07-22T08:31:55.922Z,39.06
2023-07-22T08:34:24.127Z,39.60
2023-07-22T08:36:53.871Z,39.30
2023-07-22T08:39:21.881Z,38.56
2023-07-22T08:41:51.382Z,38.04
2023-07-22T08:44:24.801Z,38.25
2023-07-22T08:46:58.532Z,39.37
2023-07-22T08:49:27.923Z,38.75
2023-07-22T08:51:57.992Z,38.49
2023-07-22T08:54:26.449Z,37.80
2023-07-22T08:56:55.906Z,38.49
2023-07-22T08:59:24.340Z,38.18
2023-07-22T09:01:55.098Z,37.49
2023-07-22T09:04:23.227Z,37.68
2023-07-22T09:06:51.969Z,37.73
2023-07-22T09:09:20.397Z,38.80
2023-07-22T09:11:49.510Z,37.25
2023-07-22T09:14:35.821Z,36.62
2023-07-22T09:17:07.481Z,36.30
2023-07-22T09:19:35.511Z,36.45
2023-07-22T09:22:03.860Z,36.56
2023-07-22T09:24:31.964Z,36.50
2023-07-22T09:27:01.724Z,35.64
2023-07-22T09:29:37.538Z,37.10
2023-07-22T09:32:07.738Z,36.69
2023-07-22T09:34:35.800Z,36.86
2023-07-22T09:37:05.046Z,36.21
2023-07-22T09:39:33.465Z,35.29
2023-07-22T09:42:03.230Z,35.98
2023-07-22T09:44:34.115Z,35.96
2023-07-22T09:47:09.077Z,35.56
2023-07-22T09:49:42.675Z,34.48
2023-07-22T09:52:14.683Z,33.76
2023-07-22T09:54:50.011Z,34.31
2023-07-22T09:57:19.058Z,34.70
2023-07-22T09:59:50.017Z,33.11
2023-07-22T10:02:21.451Z,32.56
2023-07-22T10:04:53.437Z,33.25
2023-07-22T10:07:22.920Z,33.80
2023-07-22T10:09:51.899Z,33.46
2023-07-22T10:12:19.991Z,34.38
2023-07-22T10:14:48.831Z,33.34
2023-07-22T10:17:18.075Z,33.70
2023-07-22T10:19:47.797Z,33.09
2023-07-22T10:22:16.406Z,32.45
2023-07-22T10:24:47.705Z,31.13
2023-07-22T10:27:19.084Z,30.94
2023-07-22T10:29:48.187Z,31.25
2023-07-22T10:32:18.375Z,31.59
2023-07-22T10:34:47.821Z,31.28
2023-07-22T10:37:15.923Z,30.17
2023-07-22T10:39:43.980Z,29.95
2023-07-22T10:42:25.739Z,29.31
2023-07-22T10:44:54.241Z,28.18
2023-07-22T10:47:34.251Z,28.90
2023-07-22T10:50:15.752Z,27.78
2023-07-22T10:52:45.998Z,27.28
2023-07-22T10:55:18.646Z,27.73
2023-07-22T10:57:54.379Z,28.41
2023-07-22T11:00:23.411Z,27.38
2023-07-22T11:03:13.771Z,26.79
2023-07-22T11:05:57.207Z,27.47
2023-07-22T11:08:39.011Z,27.60
2023-07-22T11:11:07.462Z,27.60
2023-07-22T11:13:40.757Z,27.00
2023-07-22T11:16:13.208Z,27.45
2023-07-22T11:18:42.459Z,27.24
2023-07-22T11:21:12.497Z,26.87
2023-07-22T11:23:40.496Z,27.28
2023-07-22T11:26:08.512Z,26.27
2023-07-22T11:28:36.587Z,25.78
2023-07-22T11:31:04.669Z,27.54
2023-07-22T11:33:40.986Z,28.06
2023-07-22T11:36:09.064Z,29.46
2023-07-22T11:38:39.948Z,29.02
2023-07-22T11:41:08.118Z,28.18
2023-07-22T11:43:36.794Z,28.38
2023-07-22T11:46:07.498Z,27.41
2023-07-22T11:48:35.645Z,28.29
2023-07-22T11:51:03.949Z,27.30
2023-07-22T11:53:31.966Z,26.89
2023-07-22T11:56:02.153Z,27.43
2023-07-22T11:58:31.529Z,28.47
2023-07-22T12:01:08.836Z,28.69
2023-07-22T12:03:37.192Z,29.40
2023-07-22T12:06:05.768Z,30.32
2023-07-22T12:08:34.598Z,29.79
2023-07-22T12:11:05.229Z,29.46
2023-07-22T12:13:38.741Z,30.35
2023-07-22T12:16:08.257Z,30.65
2023-07-22T12:18:46.364Z,29.70
2023-07-22T12:21:14.805Z,30.14
2023-07-22T12:23:44.141Z,29.38
2023-07-22T12:26:13.510Z,30.55
2023-07-22T12:28:41.725Z,30.22
2023-07-22T12:31:10.824Z,30.98
2023-07-22T12:33:39.010Z,30.07
2023-07-22T12:36:07.564Z,29.33
2023-07-22T12:38:35.779Z,29.21
2023-07-22T12:41:04.286Z,30.84
2023-07-22T12:43:34.611Z,30.00
2023-07-22T12:46:02.669Z,30.19
2023-07-22T12:48:31.512Z,29.84
2023-07-22T12:50:59.735Z,28.50
2023-07-22T12:53:28.564Z,28.44
2023-07-22T12:55:57.771Z,28.96
2023-07-22T12:58:25.956Z,30.10
2023-07-22T13:00:55.461Z,30.37
2023-07-22T13:03:23.676Z,29.39
2023-07-22T13:05:51.765Z,29.24
2023-07-22T13:08:19.785Z,29.32
2023-07-22T13:10:48.489Z,28.61
2023-07-22T13:13:16.638Z,30.03
2023-07-22T13:15:44.710Z,29.04
2023-07-22T13:18:14.914Z,29.37
2023-07-22T13:20:43.076Z,30.02
2023-07-22T13:23:11.297Z,29.91
2023-07-22T13:25:39.406Z,28.91
2023-07-22T13:28:10.279Z,29.09
2023-07-22T13:30:38.396Z,28.81
2023-07-22T13:33:06.481Z,28.49
2023-07-22T13:35:35.919Z,29.25
2023-07-22T13:38:03.991Z,29.34
2023-07-22T13:40:32.101Z,28.19
2023-07-22T13:43:00.231Z,27.96
2023-07-22T13:45:28.844Z,28.88
2023-07-22T13:47:57.029Z,29.03
2023-07-22T13:50:25.228Z,30.17
2023-07-22T13:52:54.715Z,30.79
2023-07-22T13:55:22.917Z,31.12
2023-07-22T13:57:50.920Z,31.17
2023-07-22T14:00:19.497Z,30.60
2023-07-22T14:02:47.727Z,31.35
2023-07-22T14:05:15.811Z,31.19
2023-07-22T14:07:43.824Z,31.00
2023-07-22T14:10:13.621Z,31.31
2023-07-22T14:12:41.683Z,30.95
2023-07-22T14:15:11.384Z,30.97
2023-07-22T14:17:40.134Z,31.05
2023-07-22T14:20:09.242Z,30.82
2023-07-22T14:22:37.302Z,30.73
2023-07-22T14:25:06.043Z,30.44
2023-07-22T14:27:36.093Z,30.26
2023-07-22T14:30:05.318Z,30.98
2023-07-22T14:32:33.558Z,30.64
2023-07-22T14:35:01.728Z,30.59
2023-07-22T14:37:30.207Z,30.69
2023-07-22T14:39:58.243Z,30.95
2023-07-22T14:42:26.322Z,30.57
2023-07-22T14:44:55.787Z,30.67
2023-07-22T14:47:23.901Z,31.03
2023-07-22T14:49:53.494Z,30.75
2023-07-22T14:52:21.884Z,31.29
2023-07-22T14:54:50.258Z,31.20
2023-07-22T14:57:19.397Z,31.41
2023-07-22T14:59:49.753Z,31.30
2023-07-22T15:02:19.354Z,31.71
2023-07-22T15:04:47.349Z,31.82
2023-07-22T15:07:15.510Z,32.33
2023-07-22T15:09:43.588Z,32.64
2023-07-22T15:12:11.662Z,32.73
2023-07-22T15:14:41.914Z,32.41
2023-07-22T15:19:58.498Z,32.57
2023-07-22T15:22:32.829Z,32.95
2023-07-22T15:25:03.595Z,33.25
2023-07-22T15:27:31.598Z,33.19
2023-07-22T15:29:59.630Z,33.46
2023-07-22T15:32:28.309Z,33.07
2023-07-22T15:34:57.783Z,32.57
2023-07-22T15:37:26.047Z,33.04
2023-07-22T15:39:54.198Z,33.01
2023-07-22T15:42:22.214Z,33.22
2023-07-22T15:44:50.325Z,33.66
2023-07-22T15:47:18.808Z,33.97
2023-07-22T15:49:47.016Z,33.90
2023-07-22T15:52:16.396Z,34.10
2023-07-22T15:54:47.571Z,34.47
2023-07-22T15:57:17.986Z,34.68
2023-07-22T15:59:47.967Z,34.39
2023-07-22T16:02:16.446Z,34.61
2023-07-22T16:04:44.809Z,34.40
2023-07-22T16:07:12.868Z,35.56
2023-07-22T16:09:42.529Z,35.66
2023-07-22T16:12:11.220Z,35.20
2023-07-22T16:14:39.510Z,35.62
2023-07-22T16:17:07.911Z,35.57
2023-07-22T16:19:36.122Z,35.35
2023-07-22T16:22:04.296Z,36.00
2023-07-22T16:24:32.445Z,35.92
2023-07-22T16:27:02.237Z,37.08
2023-07-22T16:29:30.238Z,37.17
2023-07-22T16:31:58.343Z,37.82
2023-07-22T16:34:26.587Z,38.41
2023-07-22T16:36:54.679Z,38.97
2023-07-22T16:39:24.052Z,39.81
2023-07-22T16:41:52.458Z,41.32
2023-07-22T16:44:23.690Z,41.53
2023-07-22T16:46:51.791Z,42.58
2023-07-22T16:49:19.864Z,42.84
2023-07-22T16:51:48.337Z,44.21
2023-07-22T16:54:16.410Z,44.29
2023-07-22T16:56:44.482Z,44.35
2023-07-22T16:59:14.167Z,44.83
2023-07-22T17:01:43.720Z,45.15
2023-07-22T17:04:12.217Z,45.23
2023-07-22T17:06:40.809Z,45.50
2023-07-22T17:09:09.334Z,45.54
2023-07-22T17:11:37.389Z,44.75
2023-07-22T17:14:05.471Z,45.29
2023-07-22T17:16:33.484Z,44.41
2023-07-22T17:19:03.153Z,44.80
2023-07-22T17:21:31.705Z,45.26
2023-07-22T17:23:59.668Z,45.91
2023-07-22T17:26:27.714Z,46.50
2023-07-22T17:28:55.824Z,46.34
2023-07-22T17:31:24.196Z,46.82
2023-07-22T17:33:52.308Z,46.69
2023-07-22T17:36:21.775Z,47.24
2023-07-22T17:38:49.977Z,47.25
2023-07-22T17:41:18.211Z,46.91
2023-07-22T17:43:46.211Z,48.02
2023-07-22T17:46:14.456Z,48.61
2023-07-22T17:48:42.475Z,48.90
2023-07-22T17:51:10.440Z,48.89
2023-07-22T17:53:40.250Z,49.01
2023-07-22T17:56:08.370Z,48.70
2023-07-22T17:58:36.356Z,49.02
2023-07-22T18:01:04.719Z,49.43
2023-07-22T18:03:33.279Z,49.39
2023-07-22T18:06:01.301Z,50.16
2023-07-22T18:08:29.304Z,50.54
2023-07-22T18:10:59.006Z,50.48
2023-07-22T18:13:27.076Z,50.95
2023-07-22T18:15:55.111Z,51.47
2023-07-22T18:18:23.300Z,51.58
2023-07-22T18:20:51.276Z,52.42
2023-07-22T18:23:19.271Z,52.43
2023-07-22T18:25:47.225Z,52.48
2023-07-22T18:28:16.599Z,52.77
2023-07-22T18:30:44.638Z,53.04
2023-07-22T18:33:12.761Z,53.42
2023-07-22T18:35:40.854Z,53.15
2023-07-22T18:38:09.225Z,53.53
2023-07-22T18:40:37.242Z,53.91
2023-07-22T18:43:05.400Z,54.25
2023-07-22T18:45:34.867Z,55.22
2023-07-22T18:48:03.937Z,55.48
2023-07-22T18:50:33.692Z,56.02
2023-07-22T18:53:01.737Z,56.54
2023-07-22T18:55:29.781Z,56.08
2023-07-22T18:57:57.846Z,56.49
2023-07-22T19:00:28.299Z,56.29
2023-07-22T19:02:58.612Z,56.77
2023-07-22T19:05:26.716Z,56.37
2023-07-22T19:07:54.879Z,57.49
2023-07-22T19:10:22.953Z,57.62
2023-07-22T19:12:51.015Z,57.82
2023-07-22T19:15:21.132Z,58.12
2023-07-22T19:17:49.461Z,58.35
2023-07-22T19:20:19.211Z,57.78
2023-07-22T19:22:47.462Z,58.47
2023-07-22T19:25:15.617Z,58.29
2023-07-22T19:27:43.745Z,58.41
2023-07-22T19:30:14.361Z,59.50
2023-07-22T19:32:42.469Z,59.39
2023-07-22T19:35:10.853Z,60.04
2023-07-22T19:37:40.295Z,60.32
2023-07-22T19:40:10.055Z,59.70
2023-07-22T19:42:38.048Z,60.16
2023-07-22T19:45:06.953Z,60.49
2023-07-22T19:47:35.279Z,60.38
2023-07-22T19:50:03.466Z,60.53
2023-07-22T19:52:31.498Z,60.50
2023-07-22T19:55:00.896Z,61.34
2023-07-22T19:57:28.986Z,61.58
2023-07-22T19:59:57.786Z,61.57
2023-07-22T20:02:26.030Z,62.11
2023-07-22T20:04:54.317Z,61.60
2023-07-22T20:07:22.350Z,62.04
2023-07-22T20:09:50.373Z,62.51
2023-07-22T20:12:19.762Z,62.15
2023-07-22T20:14:47.862Z,62.84
2023-07-22T20:17:15.884Z,62.46
2023-07-22T20:19:43.940Z,62.95
2023-07-22T20:22:12.449Z,63.96
2023-07-22T20:24:40.763Z,63.42
2023-07-22T20:27:08.860Z,64.21
2023-07-22T20:29:38.322Z,64.08
2023-07-22T20:32:12.493Z,63.74
2023-07-22T20:34:47.584Z,64.56
2023-07-22T20:37:15.613Z,65.32
2023-07-22T20:39:43.620Z,65.79
2023-07-22T20:42:11.693Z,66.00
2023-07-22T20:44:41.071Z,65.97
2023-07-22T20:47:09.148Z,66.18
2023-07-22T20:49:37.190Z,66.78
2023-07-22T20:52:05.875Z,67.42
2023-07-22T20:54:33.991Z,67.12
2023-07-22T20:57:02.017Z,68.16
2023-07-22T20:59:29.961Z,68.45
2023-07-22T21:01:59.407Z,68.05
2023-07-22T21:04:27.432Z,68.61
2023-07-22T21:06:55.422Z,68.72
2023-07-22T21:09:23.437Z,69.72
2023-07-22T21:11:51.435Z,70.27
2023-07-22T21:14:19.428Z,69.59
2023-07-22T21:16:47.472Z,69.55
2023-07-22T21:19:16.882Z,69.84
2023-07-22T21:21:46.179Z,69.79
2023-07-22T21:24:14.615Z,70.02
2023-07-22T21:26:42.642Z,69.83
2023-07-22T21:29:10.608Z,70.25
2023-07-22T21:31:38.616Z,70.29
2023-07-22T21:34:15.111Z,70.81
2023-07-22T21:36:45.104Z,71.03
2023-07-22T21:39:13.131Z,70.93
2023-07-22T21:41:41.398Z,70.96
2023-07-22T21:44:09.597Z,72.14
2023-07-22T21:46:40.286Z,72.39
2023-07-22T21:49:09.487Z,72.62
2023-07-22T21:51:39.193Z,72.55
2023-07-22T21:54:08.597Z,73.18
2023-07-22T21:56:36.698Z,73.11
2023-07-22T21:59:04.793Z,72.94
2023-07-22T22:01:32.943Z,73.07
2023-07-22T22:04:01.006Z,73.01
2023-07-22T22:06:28.973Z,73.55
2023-07-22T22:08:57.106Z,73.56
2023-07-22T22:11:26.735Z,74.08
2023-07-22T22:13:54.933Z,74.20
2023-07-22T22:16:22.991Z,73.83
2023-07-22T22:18:51.027Z,73.73
2023-07-22T22:21:19.036Z,74.10
2023-07-22T22:23:47.026Z,73.78
2023-07-22T22:26:15.119Z,73.67
2023-07-22T22:28:44.475Z,74.17
2023-07-22T22:31:12.595Z,74.28
2023-07-22T22:33:40.644Z,74.89
2023-07-22T22:36:08.797Z,74.91
2023-07-22T22:38:36.844Z,74.99
2023-07-22T22:41:05.096Z,75.42
2023-07-22T22:43:33.183Z,75.36
2023-07-22T22:46:02.499Z,75.47
2023-07-22T22:48:30.482Z,75.89
2023-07-22T22:50:58.485Z,76.55
2023-07-22T22:53:26.492Z,76.86
2023-07-22T22:55:54.485Z,77.64
2023-07-22T22:58:22.866Z,77.74
2023-07-22T23:00:50.881Z,78.16
2023-07-22T23:03:20.328Z,78.49
2023-07-22T23:05:48.369Z,78.05
2023-07-22T23:08:16.477Z,78.63
2023-07-22T23:10:47.513Z,79.73
2023-07-22T23:13:15.579Z,79.72
2023-07-22T23:15:43.778Z,79.82
2023-07-22T23:18:11.774Z,80.38
2023-07-22T23:20:41.155Z,80.86
2023-07-22T23:23:09.175Z,80.55
2023-07-22T23:25:37.195Z,80.10
2023-07-22T23:28:05.267Z,80.04
2023-07-22T23:30:33.211Z,80.78
2023-07-22T23:33:01.243Z,81.47
2023-07-22T23:35:29.239Z,82.65
2023-07-22T23:37:58.736Z,82.61
2023-07-22T23:40:26.714Z,81.96
2023-07-22T23:42:54.814Z,81.80
2023-07-22T23:45:22.765Z,82.26
2023-07-22T23:47:50.908Z,82.54
2023-07-22T23:50:19.065Z,82.90
2023-07-22T23:52:47.066Z,82.81
2023-07-22T23:55:16.612Z,83.21
2023-07-22T23:57:44.615Z,82.96
